createdAt,value
2023-04-18T00:01:10.612Z,101616.21
2023-04-18T00:03:04.581Z,101618.23
2023-04-18T00:04:58.078Z,101614.63
2023-04-18T00:06:53.655Z,101615.39
2023-04-18T00:08:46.704Z,101616.39
2023-04-18T00:10:39.649Z,101618.89
2023-04-18T00:12:34.385Z,101616.59
2023-04-18T00:14:30.274Z,101617.45
2023-04-18T00:16:24.360Z,101611.69
2023-04-18T00:18:17.229Z,101614.27
2023-04-18T00:20:11.380Z,101613.04
2023-04-18T00:22:04.308Z,101612.09
2023-04-18T00:23:57.663Z,101613.91
2023-04-18T00:25:50.629Z,101614.11
2023-04-18T00:27:43.560Z,101616.98
2023-04-18T00:29:36.511Z,101614.39
2023-04-18T00:31:29.539Z,101614.90
2023-04-18T00:33:23.837Z,101613.48
2023-04-18T00:35:19.449Z,101612.09
2023-04-18T00:37:12.921Z,101614.30
2023-04-18T00:39:08.109Z,101613.48
2023-04-18T00:41:01.057Z,101616.73
2023-04-18T00:42:53.903Z,101613.25
2023-04-18T00:44:46.748Z,101615.21
2023-04-18T00:46:39.735Z,101614.13
2023-04-18T00:48:32.950Z,101613.96
2023-04-18T00:50:26.520Z,101611.14
2023-04-18T00:52:20.179Z,101610.30
2023-04-18T00:54:13.660Z,101610.91
2023-04-18T00:56:07.713Z,101610.23
2023-04-18T00:58:00.673Z,101609.79
2023-04-18T00:59:53.719Z,101608.61
2023-04-18T01:01:47.524Z,101608.27
2023-04-18T01:03:41.116Z,101606.85
2023-04-18T01:05:36.343Z,101604.88
2023-04-18T01:07:33.501Z,101602.52
2023-04-18T01:09:26.958Z,101607.65
2023-04-18T01:11:20.513Z,101603.27
2023-04-18T01:13:18.382Z,101605.02
2023-04-18T01:15:12.050Z,101607.25
2023-04-18T01:17:04.889Z,101608.44
2023-04-18T01:18:57.695Z,101605.29
2023-04-18T01:20:52.324Z,101608.10
2023-04-18T01:22:46.295Z,101607.12
2023-04-18T01:24:39.476Z,101607.05
2023-04-18T01:26:32.293Z,101604.41
2023-04-18T01:28:27.827Z,101609.09
2023-04-18T01:30:22.588Z,101606.95
2023-04-18T01:32:17.700Z,101604.37
2023-04-18T01:34:11.733Z,101605.77
2023-04-18T01:36:08.100Z,101605.80
2023-04-18T01:38:01.346Z,101606.40
2023-04-18T01:39:54.204Z,101602.56
2023-04-18T01:41:47.144Z,101603.16
2023-04-18T01:43:39.987Z,101604.00
2023-04-18T01:45:32.933Z,101603.01
2023-04-18T01:47:25.920Z,101605.73
2023-04-18T01:49:18.836Z,101604.30
2023-04-18T01:51:11.673Z,101602.91
2023-04-18T01:53:04.931Z,101606.52
2023-04-18T01:54:57.725Z,101603.39
2023-04-18T01:56:50.827Z,101607.96
2023-04-18T01:58:43.876Z,101606.78
2023-04-18T02:00:38.516Z,101602.89
2023-04-18T02:02:32.017Z,101604.41
2023-04-18T02:04:25.285Z,101602.27
2023-04-18T02:06:18.128Z,101603.02
2023-04-18T02:08:11.898Z,101600.87
2023-04-18T02:10:05.424Z,101603.31
2023-04-18T02:11:59.666Z,101602.28
2023-04-18T02:13:52.523Z,101599.26
2023-04-18T02:15:48.911Z,101599.67
2023-04-18T02:17:41.956Z,101596.38
2023-04-18T02:19:35.117Z,101598.85
2023-04-18T02:21:30.422Z,101598.92
2023-04-18T02:23:23.367Z,101594.69
2023-04-18T02:25:16.430Z,101596.68
2023-04-18T02:27:11.219Z,101598.89
2023-04-18T02:29:04.261Z,101598.02
2023-04-18T02:30:57.312Z,101597.05
2023-04-18T02:32:54.283Z,101595.94
2023-04-18T02:34:49.863Z,101596.65
2023-04-18T02:36:43.116Z,101596.41
2023-04-18T02:38:36.585Z,101595.91
2023-04-18T02:40:29.448Z,101598.58
2023-04-18T02:42:25.457Z,101598.55
2023-04-18T02:44:18.393Z,101594.31
2023-04-18T02:46:11.769Z,101597.86
2023-04-18T02:48:05.226Z,101597.86
2023-04-18T02:49:59.395Z,101595.29
2023-04-18T02:51:57.763Z,101598.00
2023-04-18T02:53:55.011Z,101596.30
2023-04-18T02:55:48.164Z,101598.04
2023-04-18T02:57:41.519Z,101598.08
2023-04-18T02:59:53.205Z,101600.45
2023-04-18T03:02:12.614Z,101596.44
2023-04-18T03:04:10.745Z,101596.61
2023-04-18T03:06:07.898Z,101598.85
2023-04-18T03:08:01.558Z,101596.51
2023-04-18T03:09:54.615Z,101599.90
2023-04-18T03:11:53.907Z,101599.77
2023-04-18T03:13:50.139Z,101599.41
2023-04-18T03:15:43.316Z,101599.13
2023-04-18T03:17:36.733Z,101600.94
2023-04-18T03:19:32.256Z,101600.77
2023-04-18T03:21:29.192Z,101598.57
2023-04-18T03:23:23.071Z,101600.31
2023-04-18T03:25:16.023Z,101605.66
2023-04-18T03:27:13.364Z,101604.41
2023-04-18T03:29:06.624Z,101603.73
2023-04-18T03:31:00.096Z,101606.06
2023-04-18T03:32:53.783Z,101607.87
2023-04-18T03:34:46.688Z,101605.46
2023-04-18T03:36:40.256Z,101605.52
2023-04-18T03:38:33.246Z,101606.81
2023-04-18T03:40:26.356Z,101604.27
2023-04-18T03:42:21.352Z,101603.70
2023-04-18T03:44:15.297Z,101605.04
2023-04-18T03:46:08.395Z,101606.98
2023-04-18T03:48:01.920Z,101605.48
2023-04-18T03:49:56.111Z,101605.97
2023-04-18T03:51:49.279Z,101606.27
2023-04-18T03:53:42.319Z,101605.18
2023-04-18T03:55:35.471Z,101603.66
2023-04-18T03:57:29.141Z,101602.48
2023-04-18T03:59:22.082Z,101601.05
2023-04-18T04:01:16.914Z,101604.54
2023-04-18T04:03:10.861Z,101604.21
2023-04-18T04:05:05.657Z,101606.98
2023-04-18T04:07:00.534Z,101607.98
2023-04-18T04:08:53.593Z,101605.32
2023-04-18T04:10:49.716Z,101608.61
2023-04-18T04:12:43.378Z,101607.05
2023-04-18T04:14:37.101Z,101611.83
2023-04-18T04:16:30.542Z,101614.71
2023-04-18T04:18:31.257Z,101614.71
2023-04-18T04:20:26.755Z,101613.14
2023-04-18T04:22:33.001Z,101612.61
2023-04-18T04:24:25.945Z,101612.84
2023-04-18T04:26:18.894Z,101614.71
2023-04-18T04:28:22.881Z,101613.96
2023-04-18T04:30:23.570Z,101619.11
2023-04-18T04:32:17.092Z,101618.13
2023-04-18T04:34:10.037Z,101621.72
2023-04-18T04:36:03.805Z,101621.05
2023-04-18T04:37:57.265Z,101619.39
2023-04-18T04:40:01.071Z,101622.77
2023-04-18T04:42:13.720Z,101625.15
2023-04-18T04:44:17.844Z,101622.50
2023-04-18T04:46:13.925Z,101621.41
2023-04-18T04:48:09.203Z,101623.45
2023-04-18T04:50:04.335Z,101625.52
2023-04-18T04:51:58.648Z,101628.65
2023-04-18T04:53:52.350Z,101631.28
2023-04-18T04:55:45.811Z,101630.22
2023-04-18T04:57:38.806Z,101626.83
2023-04-18T04:59:41.350Z,101630.40
2023-04-18T05:01:34.316Z,101632.25
2023-04-18T05:03:28.940Z,101632.84
2023-04-18T05:05:23.354Z,101633.52
2023-04-18T05:07:16.200Z,101637.30
2023-04-18T05:09:09.046Z,101636.42
2023-04-18T05:11:02.199Z,101638.02
2023-04-18T05:12:55.150Z,101639.77
2023-04-18T05:14:48.018Z,101642.02
2023-04-18T05:16:41.719Z,101642.02
2023-04-18T05:18:37.555Z,101647.95
2023-04-18T05:20:30.746Z,101645.95
2023-04-18T05:22:23.577Z,101647.09
2023-04-18T05:24:16.659Z,101647.70
2023-04-18T05:26:09.778Z,101645.30
2023-04-18T05:28:04.975Z,101640.90
2023-04-18T05:29:58.181Z,101645.81
2023-04-18T05:31:51.287Z,101643.83
2023-04-18T05:33:44.238Z,101647.30
2023-04-18T05:35:37.340Z,101647.98
2023-04-18T05:37:30.236Z,101649.42
2023-04-18T05:39:23.109Z,101650.82
2023-04-18T05:41:15.965Z,101648.04
2023-04-18T05:43:08.874Z,101650.02
2023-04-18T05:45:01.928Z,101645.52
2023-04-18T05:46:54.878Z,101648.94
2023-04-18T05:48:47.720Z,101647.08
2023-04-18T05:50:40.883Z,101649.91
2023-04-18T05:52:35.051Z,101650.52
2023-04-18T05:54:28.001Z,101646.45
2023-04-18T05:56:21.254Z,101643.73
2023-04-18T05:58:14.314Z,101648.08
2023-04-18T06:00:11.422Z,101649.48
2023-04-18T06:02:13.698Z,101648.70
2023-04-18T06:04:07.690Z,101651.10
2023-04-18T06:06:00.947Z,101650.59
2023-04-18T06:07:53.891Z,101645.20
2023-04-18T06:09:46.737Z,101648.28
2023-04-18T06:11:39.685Z,101649.10
2023-04-18T06:13:32.735Z,101646.79
2023-04-18T06:15:25.895Z,101645.95
2023-04-18T06:17:19.286Z,101653.91
2023-04-18T06:19:12.120Z,101656.38
2023-04-18T06:21:05.418Z,101654.73
2023-04-18T06:22:58.315Z,101656.88
2023-04-18T06:24:51.245Z,101657.77
2023-04-18T06:26:44.196Z,101656.70
2023-04-18T06:28:37.043Z,101659.89
2023-04-18T06:30:30.077Z,101662.48
2023-04-18T06:32:23.198Z,101658.82
2023-04-18T06:34:17.015Z,101667.47
2023-04-18T06:36:10.574Z,101666.81
2023-04-18T06:38:03.939Z,101667.95
2023-04-18T06:39:59.147Z,101669.21
2023-04-18T06:41:52.141Z,101666.28
2023-04-18T06:44:03.318Z,101668.03
2023-04-18T06:45:59.509Z,101664.09
2023-04-18T06:47:53.247Z,101659.74
2023-04-18T06:49:46.220Z,101668.80
2023-04-18T06:51:39.048Z,101666.52
2023-04-18T06:53:31.895Z,101666.56
2023-04-18T06:55:24.738Z,101666.90
2023-04-18T06:57:17.988Z,101670.34
2023-04-18T06:59:10.928Z,101671.73
2023-04-18T07:01:04.608Z,101674.34
2023-04-18T07:02:58.383Z,101673.92
2023-04-18T07:04:52.002Z,101674.85
2023-04-18T07:06:44.976Z,101673.48
2023-04-18T07:08:38.268Z,101673.88
2023-04-18T07:10:31.199Z,101681.03
2023-04-18T07:12:24.546Z,101677.84
2023-04-18T07:14:19.753Z,101681.16
2023-04-18T07:16:12.792Z,101680.81
2023-04-18T07:18:06.040Z,101683.60
2023-04-18T07:19:59.611Z,101685.23
2023-04-18T07:21:52.484Z,101687.67
2023-04-18T07:23:45.419Z,101686.08
2023-04-18T07:25:39.081Z,101688.20
2023-04-18T07:27:34.796Z,101690.94
2023-04-18T07:29:28.268Z,101691.22
2023-04-18T07:31:21.541Z,101695.74
2023-04-18T07:33:14.722Z,101691.98
2023-04-18T07:35:10.680Z,101693.05
2023-04-18T07:37:03.828Z,101693.91
2023-04-18T07:38:57.998Z,101696.20
2023-04-18T07:41:00.365Z,101697.45
2023-04-18T07:42:53.638Z,101695.52
2023-04-18T07:44:47.299Z,101700.17
2023-04-18T07:46:41.442Z,101698.91
2023-04-18T07:48:35.035Z,101702.91
2023-04-18T07:50:28.083Z,101699.48
2023-04-18T07:52:21.661Z,101696.25
2023-04-18T07:54:14.593Z,101698.91
2023-04-18T07:56:07.561Z,101701.89
2023-04-18T07:58:00.794Z,101703.59
2023-04-18T07:59:54.159Z,101701.11
2023-04-18T08:01:47.123Z,101700.77
2023-04-18T08:03:40.248Z,101702.58
2023-04-18T08:05:33.562Z,101700.86
2023-04-18T08:07:28.167Z,101701.70
2023-04-18T08:09:28.590Z,101702.08
2023-04-18T08:11:21.800Z,101701.30
2023-04-18T08:13:15.028Z,101704.70
2023-04-18T08:15:09.085Z,101701.41
2023-04-18T08:17:02.704Z,101702.80
2023-04-18T08:18:56.242Z,101696.56
2023-04-18T08:20:53.136Z,101695.15
2023-04-18T08:23:05.200Z,101697.83
2023-04-18T08:25:05.367Z,101698.44
2023-04-18T08:26:58.858Z,101697.70
2023-04-18T08:28:52.189Z,101701.79
2023-04-18T08:30:48.922Z,101700.55
2023-04-18T08:32:41.918Z,101704.92
2023-04-18T08:34:37.088Z,101698.80
2023-04-18T08:36:30.042Z,101699.84
2023-04-18T08:38:23.103Z,101699.54
2023-04-18T08:40:17.079Z,101697.80
2023-04-18T08:42:11.540Z,101703.17
2023-04-18T08:44:06.406Z,101703.70
2023-04-18T08:46:00.671Z,101703.39
2023-04-18T08:47:53.845Z,101705.30
2023-04-18T08:49:47.125Z,101703.54
2023-04-18T08:51:40.276Z,101702.52
2023-04-18T08:53:33.873Z,101705.43
2023-04-18T08:55:27.197Z,101704.08
2023-04-18T08:57:30.291Z,101707.72
2023-04-18T08:59:43.795Z,101704.77
2023-04-18T09:01:56.807Z,101707.27
2023-04-18T09:03:51.351Z,101707.07
2023-04-18T09:06:04.258Z,101712.39
2023-04-18T09:07:57.402Z,101708.70
2023-04-18T09:09:53.389Z,101707.34
2023-04-18T09:11:46.351Z,101702.89
2023-04-18T09:13:39.948Z,101705.11
2023-04-18T09:15:33.072Z,101701.20
2023-04-18T09:17:43.876Z,101701.60
2023-04-18T09:19:36.985Z,101705.80
2023-04-18T09:21:29.833Z,101704.16
2023-04-18T09:23:24.736Z,101702.38
2023-04-18T09:25:39.809Z,101698.83
2023-04-18T09:27:35.206Z,101705.69
2023-04-18T09:29:47.285Z,101703.77
2023-04-18T09:32:01.540Z,101706.16
2023-04-18T09:33:56.923Z,101708.44
2023-04-18T09:35:50.013Z,101711.65
2023-04-18T09:37:51.453Z,101713.73
2023-04-18T09:39:44.930Z,101711.71
2023-04-18T09:41:37.861Z,101713.10
2023-04-18T09:43:30.704Z,101709.27
2023-04-18T09:45:24.895Z,101708.79
2023-04-18T09:47:17.728Z,101708.17
2023-04-18T09:49:11.496Z,101710.45
2023-04-18T09:51:08.029Z,101715.76
2023-04-18T09:53:01.796Z,101712.05
2023-04-18T09:55:00.008Z,101709.83
2023-04-18T09:56:54.345Z,101710.80
2023-04-18T09:58:49.060Z,101710.16
2023-04-18T10:00:42.742Z,101707.49
2023-04-18T10:03:03.056Z,101704.45
2023-04-18T10:04:56.242Z,101703.41
2023-04-18T10:06:49.399Z,101707.85
2023-04-18T10:08:44.703Z,101704.95
2023-04-18T10:10:38.938Z,101701.63
2023-04-18T10:12:33.567Z,101702.06
2023-04-18T10:14:28.029Z,101701.11
2023-04-18T10:16:21.919Z,101701.27
2023-04-18T10:18:16.729Z,101701.65
2023-04-18T10:20:16.620Z,101698.60
2023-04-18T10:22:10.042Z,101699.17
2023-04-18T10:24:03.561Z,101698.94
2023-04-18T10:25:56.897Z,101703.11
2023-04-18T10:27:49.648Z,101699.69
2023-04-18T10:29:54.674Z,101696.56
2023-04-18T10:31:48.110Z,101699.38
2023-04-18T10:35:59.021Z,101697.60
2023-04-18T10:37:52.576Z,101696.92
2023-04-18T10:39:58.509Z,101699.41
2023-04-18T10:41:51.874Z,101690.88
2023-04-18T10:44:08.025Z,101694.98
2023-04-18T10:46:23.932Z,101690.92
2023-04-18T10:48:26.133Z,101690.64
2023-04-18T10:50:22.258Z,101692.92
2023-04-18T10:52:15.822Z,101693.14
2023-04-18T10:54:13.473Z,101693.48
2023-04-18T10:56:10.396Z,101689.90
2023-04-18T10:58:03.674Z,101687.27
2023-04-18T10:59:57.135Z,101689.45
2023-04-18T11:01:55.753Z,101690.08
2023-04-18T11:03:48.706Z,101686.88
2023-04-18T11:05:41.955Z,101684.40
2023-04-18T11:07:46.613Z,101682.77
2023-04-18T11:09:39.492Z,101684.95
2023-04-18T11:11:32.335Z,101685.78
2023-04-18T11:13:25.493Z,101689.17
2023-04-18T11:15:22.397Z,101689.38
2023-04-18T11:17:20.218Z,101685.98
2023-04-18T11:19:21.450Z,101683.63
2023-04-18T11:21:14.384Z,101683.02
2023-04-18T11:23:17.472Z,101679.95
2023-04-18T11:25:11.133Z,101680.50
2023-04-18T11:27:04.700Z,101677.53
2023-04-18T11:28:58.566Z,101677.75
2023-04-18T11:30:51.375Z,101677.04
2023-04-18T11:32:44.487Z,101674.34
2023-04-18T11:34:37.417Z,101670.06
2023-04-18T11:36:35.190Z,101671.39
2023-04-18T11:38:30.853Z,101669.94
2023-04-18T11:40:23.940Z,101668.39
2023-04-18T11:42:16.985Z,101670.21
2023-04-18T11:44:09.861Z,101670.55
2023-04-18T11:46:02.819Z,101671.39
2023-04-18T11:47:58.357Z,101666.45
2023-04-18T11:49:58.565Z,101667.89
2023-04-18T11:51:51.454Z,101671.90
2023-04-18T11:53:44.732Z,101666.70
2023-04-18T11:55:37.863Z,101664.98
2023-04-18T11:57:32.252Z,101663.54
2023-04-18T11:59:25.087Z,101664.08
2023-04-18T12:01:25.712Z,101663.76
2023-04-18T12:03:22.746Z,101664.69
2023-04-18T12:05:37.132Z,101660.23
2023-04-18T12:07:38.554Z,101661.35
2023-04-18T12:09:31.404Z,101662.12
2023-04-18T12:11:24.250Z,101659.21
2023-04-18T12:13:17.939Z,101658.23
2023-04-18T12:15:16.354Z,101660.90
2023-04-18T12:17:09.237Z,101661.44
2023-04-18T12:19:02.194Z,101662.35
2023-04-18T12:20:55.055Z,101657.55
2023-04-18T12:22:49.874Z,101652.88
2023-04-18T12:24:43.612Z,101654.31
2023-04-18T12:26:45.857Z,101652.66
2023-04-18T12:28:38.706Z,101647.05
2023-04-18T12:30:37.348Z,101651.34
2023-04-18T12:32:30.872Z,101648.75
2023-04-18T12:34:23.898Z,101649.70
2023-04-18T12:36:16.840Z,101642.66
2023-04-18T12:38:09.684Z,101645.98
2023-04-18T12:40:02.600Z,101643.65
2023-04-18T12:41:55.490Z,101643.79
2023-04-18T12:43:48.331Z,101640.02
2023-04-18T12:45:41.290Z,101640.92
2023-04-18T12:47:35.677Z,101638.03
2023-04-18T12:49:28.604Z,101641.94
2023-04-18T12:51:22.078Z,101637.35
2023-04-18T12:53:15.007Z,101640.31
2023-04-18T12:55:08.988Z,101637.57
2023-04-18T12:57:01.840Z,101635.86
2023-04-18T12:58:54.788Z,101636.04
2023-04-18T13:00:47.658Z,101631.08
2023-04-18T13:02:43.825Z,101632.19
2023-04-18T13:04:37.181Z,101625.79
2023-04-18T13:06:30.989Z,101629.07
2023-04-18T13:08:23.817Z,101632.48
2023-04-18T13:10:19.423Z,101626.59
2023-04-18T13:12:12.807Z,101621.77
2023-04-18T13:14:05.744Z,101621.94
2023-04-18T13:15:58.777Z,101620.87
2023-04-18T13:17:51.756Z,101620.69
2023-04-18T13:19:44.693Z,101618.55
2023-04-18T13:21:38.384Z,101618.73
2023-04-18T13:23:31.820Z,101616.70
2023-04-18T13:25:26.603Z,101616.69
2023-04-18T13:27:20.908Z,101615.17
2023-04-18T13:29:14.885Z,101614.88
2023-04-18T13:31:09.087Z,101610.63
2023-04-18T13:33:03.172Z,101611.05
2023-04-18T13:34:57.177Z,101609.59
2023-04-18T13:36:50.434Z,101606.50
2023-04-18T13:38:45.014Z,101607.89
2023-04-18T13:40:39.107Z,101607.61
2023-04-18T13:42:38.787Z,101606.95
2023-04-18T13:44:32.830Z,101607.40
2023-04-18T13:46:30.184Z,101609.95
2023-04-18T13:48:24.461Z,101605.30
2023-04-18T13:50:19.866Z,101609.23
2023-04-18T13:52:14.313Z,101611.32
2023-04-18T13:54:09.081Z,101612.20
2023-04-18T13:56:04.358Z,101610.81
2023-04-18T13:57:58.495Z,101605.67
2023-04-18T13:59:52.653Z,101604.80
2023-04-18T14:01:46.894Z,101603.91
2023-04-18T14:03:43.738Z,101605.52
2023-04-18T14:05:38.101Z,101602.55
2023-04-18T14:07:31.657Z,101601.05
2023-04-18T14:09:27.370Z,101604.80
2023-04-18T14:11:21.824Z,101607.61
2023-04-18T14:13:15.418Z,101605.41
2023-04-18T14:15:09.906Z,101605.77
2023-04-18T14:17:03.255Z,101606.48
2023-04-18T14:18:57.509Z,101612.69
2023-04-18T14:20:52.321Z,101606.50
2023-04-18T14:22:46.904Z,101607.00
2023-04-18T14:24:40.770Z,101603.75
2023-04-18T14:26:34.142Z,101604.88
2023-04-18T14:28:27.324Z,101602.39
2023-04-18T14:30:20.534Z,101603.09
2023-04-18T14:32:13.782Z,101603.56
2023-04-18T14:34:08.454Z,101601.46
2023-04-18T14:36:07.259Z,101597.34
2023-04-18T14:38:02.323Z,101602.47
2023-04-18T14:39:55.272Z,101601.37
2023-04-18T14:41:53.997Z,101603.54
2023-04-18T14:43:55.911Z,101598.21
2023-04-18T14:46:03.002Z,101598.09
2023-04-18T14:48:10.199Z,101596.86
2023-04-18T14:50:19.016Z,101594.97
2023-04-18T14:52:20.547Z,101591.84
2023-04-18T14:54:25.857Z,101591.50
2023-04-18T14:56:33.164Z,101593.24
2023-04-18T14:58:39.595Z,101595.73
2023-04-18T15:00:49.350Z,101592.27
2023-04-18T15:02:52.203Z,101586.28
2023-04-18T15:05:00.966Z,101584.96
2023-04-18T15:07:09.087Z,101584.58
2023-04-18T15:09:18.147Z,101587.46
2023-04-18T15:11:15.974Z,101585.52
2023-04-18T15:13:09.737Z,101587.02
2023-04-18T15:15:02.694Z,101582.36
2023-04-18T15:16:56.199Z,101585.06
2023-04-18T15:18:49.196Z,101579.47
2023-04-18T15:20:42.042Z,101577.99
2023-04-18T15:22:36.321Z,101581.38
2023-04-18T15:24:29.476Z,101577.83
2023-04-18T15:26:22.298Z,101579.82
2023-04-18T15:28:16.289Z,101578.88
2023-04-18T15:30:12.133Z,101581.45
2023-04-18T15:32:05.690Z,101580.22
2023-04-18T15:33:58.717Z,101581.30
2023-04-18T15:35:52.442Z,101578.48
2023-04-18T15:37:48.569Z,101576.98
2023-04-18T15:39:47.613Z,101575.66
2023-04-18T15:41:42.185Z,101572.77
2023-04-18T15:43:35.244Z,101575.26
2023-04-18T15:45:28.190Z,101578.33
2023-04-18T15:47:21.238Z,101573.48
2023-04-18T15:49:14.390Z,101577.98
2023-04-18T15:51:07.752Z,101576.64
2023-04-18T15:53:00.806Z,101574.51
2023-04-18T15:54:54.051Z,101579.25
2023-04-18T15:56:46.902Z,101577.48
2023-04-18T15:58:39.739Z,101580.35
2023-04-18T16:00:32.895Z,101579.09
2023-04-18T16:02:26.780Z,101584.37
2023-04-18T16:04:19.887Z,101583.31
2023-04-18T16:06:14.614Z,101584.64
2023-04-18T16:08:09.002Z,101583.77
2023-04-18T16:10:05.206Z,101582.79
2023-04-18T16:11:58.033Z,101578.90
2023-04-18T16:13:50.977Z,101581.23
2023-04-18T16:15:43.883Z,101580.58
2023-04-18T16:17:37.761Z,101578.76
2023-04-18T16:19:31.291Z,101580.23
2023-04-18T16:21:24.131Z,101576.52
2023-04-18T16:23:17.079Z,101577.88
2023-04-18T16:25:10.073Z,101575.56
2023-04-18T16:27:02.903Z,101572.66
2023-04-18T16:28:57.123Z,101574.56
2023-04-18T16:30:50.024Z,101571.33
2023-04-18T16:32:43.585Z,101568.56
2023-04-18T16:34:37.016Z,101565.90
2023-04-18T16:36:34.267Z,101566.08
2023-04-18T16:38:27.536Z,101568.20
2023-04-18T16:40:20.779Z,101570.02
2023-04-18T16:42:15.461Z,101565.73
2023-04-18T16:44:09.132Z,101567.08
2023-04-18T16:46:02.803Z,101567.46
2023-04-18T16:47:55.673Z,101571.36
2023-04-18T16:49:48.798Z,101570.33
2023-04-18T16:51:41.748Z,101570.64
2023-04-18T16:53:40.346Z,101572.30
2023-04-18T16:55:37.035Z,101567.70
2023-04-18T16:57:29.997Z,101569.90
2023-04-18T16:59:22.862Z,101574.33
2023-04-18T17:01:16.199Z,101573.99
2023-04-18T17:03:10.480Z,101570.08
2023-04-18T17:05:03.885Z,101570.93
2023-04-18T17:06:57.110Z,101571.74
2023-04-18T17:08:50.361Z,101574.52
2023-04-18T17:10:50.238Z,101572.26
2023-04-18T17:12:49.310Z,101569.61
2023-04-18T17:14:42.088Z,101571.20
2023-04-18T17:16:38.047Z,101569.31
2023-04-18T17:18:36.917Z,101568.98
2023-04-18T17:20:39.872Z,101568.67
2023-04-18T17:22:37.673Z,101570.16
2023-04-18T17:24:30.709Z,101566.87
2023-04-18T17:26:25.802Z,101572.98
2023-04-18T17:28:19.041Z,101569.08
2023-04-18T17:30:12.326Z,101570.72
2023-04-18T17:32:05.820Z,101569.83
2023-04-18T17:33:59.661Z,101569.80
2023-04-18T17:35:52.698Z,101570.69
2023-04-18T17:37:46.945Z,101571.18
2023-04-18T17:39:40.742Z,101570.73
2023-04-18T17:41:38.398Z,101572.28
2023-04-18T17:43:31.360Z,101573.13
2023-04-18T17:45:25.759Z,101575.95
2023-04-18T17:47:18.606Z,101574.19
2023-04-18T17:49:12.410Z,101577.01
2023-04-18T17:51:06.213Z,101577.42
2023-04-18T17:52:59.468Z,101581.02
2023-04-18T17:54:52.432Z,101579.92
2023-04-18T17:56:45.783Z,101583.96
2023-04-18T17:58:39.951Z,101585.90
2023-04-18T18:00:32.802Z,101583.76
2023-04-18T18:02:26.015Z,101583.59
2023-04-18T18:04:20.096Z,101588.59
2023-04-18T18:06:14.409Z,101589.02
2023-04-18T18:08:07.523Z,101588.76
2023-04-18T18:10:01.336Z,101587.80
2023-04-18T18:11:55.899Z,101589.53
2023-04-18T18:13:51.837Z,101592.97
2023-04-18T18:15:45.192Z,101593.04
2023-04-18T18:17:52.623Z,101594.94
2023-04-18T18:19:45.836Z,101594.38
2023-04-18T18:21:39.088Z,101596.41
2023-04-18T18:23:37.740Z,101603.34
2023-04-18T18:25:31.240Z,101603.42
2023-04-18T18:27:24.182Z,101601.77
2023-04-18T18:29:17.201Z,101601.65
2023-04-18T18:31:10.145Z,101600.66
2023-04-18T18:33:04.048Z,101605.49
2023-04-18T18:34:56.994Z,101606.42
2023-04-18T18:36:50.664Z,101609.28
2023-04-18T18:38:43.535Z,101610.91
2023-04-18T18:40:39.436Z,101609.77
2023-04-18T18:42:39.749Z,101609.23
2023-04-18T18:44:38.025Z,101610.02
2023-04-18T18:46:31.320Z,101610.13
2023-04-18T18:48:24.850Z,101613.82
2023-04-18T18:50:18.222Z,101609.40
2023-04-18T18:52:11.366Z,101609.82
2023-04-18T18:54:04.603Z,101612.41
2023-04-18T18:55:57.855Z,101612.27
2023-04-18T18:57:51.315Z,101617.35
2023-04-18T18:59:44.468Z,101612.94
2023-04-18T19:01:37.693Z,101615.66
2023-04-18T19:03:31.268Z,101613.80
2023-04-18T19:05:24.539Z,101619.49
2023-04-18T19:07:17.697Z,101616.54
2023-04-18T19:09:10.856Z,101618.00
2023-04-18T19:11:04.526Z,101617.02
2023-04-18T19:12:57.770Z,101615.23
2023-04-18T19:14:50.617Z,101615.64
2023-04-18T19:16:43.492Z,101613.60
2023-04-18T19:18:37.024Z,101616.36
2023-04-18T19:20:29.973Z,101619.16
2023-04-18T19:22:22.819Z,101615.98
2023-04-18T19:24:15.872Z,101620.44
2023-04-18T19:26:09.469Z,101614.45
2023-04-18T19:28:02.493Z,101616.82
2023-04-18T19:29:55.328Z,101613.64
2023-04-18T19:31:48.214Z,101611.66
2023-04-18T19:33:41.055Z,101612.30
2023-04-18T19:35:35.319Z,101609.05
2023-04-18T19:37:30.806Z,101609.10
2023-04-18T19:39:23.759Z,101604.54
2023-04-18T19:41:16.752Z,101608.39
2023-04-18T19:43:09.679Z,101607.05
2023-04-18T19:45:03.236Z,101604.27
2023-04-18T19:46:56.370Z,101607.52
2023-04-18T19:48:49.354Z,101606.02
2023-04-18T19:50:42.464Z,101609.98
2023-04-18T19:52:35.634Z,101604.04
2023-04-18T19:54:28.501Z,101606.03
2023-04-18T19:56:21.788Z,101602.92
2023-04-18T19:58:45.302Z,101605.79
2023-04-18T20:00:38.438Z,101600.70
2023-04-18T20:02:31.386Z,101599.02
2023-04-18T20:04:26.140Z,101600.40
2023-04-18T20:06:19.131Z,101600.23
2023-04-18T20:08:11.981Z,101598.91
2023-04-18T20:10:05.942Z,101597.76
2023-04-18T20:12:00.667Z,101597.04
2023-04-18T20:13:55.835Z,101603.27
2023-04-18T20:15:49.371Z,101603.48
2023-04-18T20:17:42.789Z,101601.35
2023-04-18T20:19:36.443Z,101600.09
2023-04-18T20:21:29.468Z,101606.22
2023-04-18T20:23:22.314Z,101599.56
2023-04-18T20:25:15.372Z,101599.35
2023-04-18T20:27:08.414Z,101598.94
2023-04-18T20:29:02.186Z,101598.54
2023-04-18T20:30:55.988Z,101591.16
2023-04-18T20:32:49.009Z,101597.54
2023-04-18T20:34:41.956Z,101597.70
2023-04-18T20:36:35.619Z,101595.23
2023-04-18T20:38:29.815Z,101596.10
2023-04-18T20:40:22.943Z,101595.88
2023-04-18T20:42:15.916Z,101598.73
2023-04-18T20:44:10.117Z,101595.80
2023-04-18T20:46:03.065Z,101595.66
2023-04-18T20:47:56.849Z,101596.91
2023-04-18T20:49:49.834Z,101596.42
2023-04-18T20:51:42.685Z,101597.61
2023-04-18T20:53:35.731Z,101596.23
2023-04-18T20:55:28.790Z,101596.94
2023-04-18T20:57:21.843Z,101594.30
2023-04-18T20:59:14.733Z,101589.77
2023-04-18T21:01:07.634Z,101584.45
2023-04-18T21:03:00.943Z,101584.32
2023-04-18T21:04:54.240Z,101581.14
2023-04-18T21:06:47.268Z,101578.08
2023-04-18T21:08:40.142Z,101576.84
2023-04-18T21:10:33.084Z,101579.27
2023-04-18T21:12:27.461Z,101576.89
2023-04-18T21:14:20.517Z,101574.27
2023-04-18T21:16:13.458Z,101570.13
2023-04-18T21:18:06.476Z,101566.50
2023-04-18T21:20:06.089Z,101564.77
2023-04-18T21:22:13.650Z,101565.84
2023-04-18T21:24:08.342Z,101559.46
2023-04-18T21:26:01.142Z,101560.52
2023-04-18T21:27:54.297Z,101558.52
2023-04-18T21:29:48.199Z,101556.73
2023-04-18T21:31:41.082Z,101551.96
2023-04-18T21:33:34.061Z,101557.77
2023-04-18T21:35:26.908Z,101553.33
2023-04-18T21:37:19.754Z,101556.19
2023-04-18T21:39:12.603Z,101555.26
2023-04-18T21:41:09.141Z,101553.80
2023-04-18T21:43:04.842Z,101556.08
2023-04-18T21:44:59.024Z,101561.50
2023-04-18T21:46:51.844Z,101565.21
2023-04-18T21:48:47.248Z,101557.30
2023-04-18T21:50:43.197Z,101559.13
2023-04-18T21:52:37.267Z,101563.20
2023-04-18T21:54:30.117Z,101559.10